createdAt,value
2023-04-30T00:01:59.281Z,75990.22
2023-04-30T00:04:29.192Z,75992.67
2023-04-30T00:06:56.560Z,75993.09
2023-04-30T00:09:25.908Z,75994.73
2023-04-30T00:11:55.044Z,75993.50
2023-04-30T00:14:23.533Z,75988.57
2023-04-30T00:16:53.090Z,75989.39
2023-04-30T00:19:22.279Z,75988.98
2023-04-30T00:21:50.611Z,75990.21
2023-04-30T00:24:20.755Z,75993.50
2023-04-30T00:26:47.945Z,75991.44
2023-04-30T00:29:20.792Z,75993.91
2023-04-30T00:31:48.430Z,75993.92
2023-04-30T00:34:15.627Z,75993.50
2023-04-30T00:36:42.980Z,75993.09
2023-04-30T00:39:10.011Z,75991.04
2023-04-30T00:41:39.724Z,75989.39
2023-04-30T00:44:07.048Z,75988.57
2023-04-30T00:46:35.770Z,75984.03
2023-04-30T00:49:05.366Z,75982.39
2023-04-30T00:51:33.955Z,75983.21
2023-04-30T00:54:05.231Z,75986.51
2023-04-30T00:56:32.695Z,75988.16
2023-04-30T00:59:14.482Z,75988.56
2023-04-30T01:01:41.498Z,75991.45
2023-04-30T01:04:08.754Z,75991.44
2023-04-30T01:06:36.189Z,75996.79
2023-04-30T01:09:03.465Z,75993.50
2023-04-30T01:11:48.146Z,75993.50
2023-04-30T01:14:28.492Z,76001.73
2023-04-30T01:17:06.384Z,76003.38
2023-04-30T01:19:43.822Z,76003.38
2023-04-30T01:22:43.097Z,76009.14
2023-04-30T01:25:29.165Z,76011.20
2023-04-30T01:28:24.212Z,76014.90
2023-04-30T01:30:52.391Z,76019.42
2023-04-30T01:33:20.073Z,76023.13
2023-04-30T01:35:52.979Z,76023.95
2023-04-30T01:38:58.567Z,76023.54
2023-04-30T01:41:34.754Z,76026.02
2023-04-30T01:44:32.739Z,76028.07
2023-04-30T01:47:05.783Z,76030.13
2023-04-30T01:49:58.796Z,76031.77
2023-04-30T01:52:44.043Z,76034.65
2023-04-30T01:55:15.815Z,76037.12
2023-04-30T01:57:46.745Z,76040.42
2023-04-30T02:00:14.582Z,76042.88
2023-04-30T02:02:42.577Z,76046.59
2023-04-30T02:05:09.979Z,76047.41
2023-04-30T02:07:46.344Z,76050.70
2023-04-30T02:10:14.231Z,76053.59
2023-04-30T02:12:42.377Z,76061.40
2023-04-30T02:15:09.781Z,76063.05
2023-04-30T02:17:36.943Z,76067.58
2023-04-30T02:20:05.495Z,76069.64
2023-04-30T02:22:32.775Z,76070.05
2023-04-30T02:25:01.466Z,76072.52
2023-04-30T02:27:31.837Z,76072.92
2023-04-30T02:30:00.416Z,76075.39
2023-04-30T02:32:27.493Z,76081.56
2023-04-30T02:34:54.968Z,76084.45
2023-04-30T02:37:22.862Z,76086.92
2023-04-30T02:39:50.509Z,76093.09
2023-04-30T02:42:17.587Z,76092.27
2023-04-30T02:44:44.638Z,76096.80
2023-04-30T02:47:11.846Z,76098.44
2023-04-30T02:49:39.522Z,76099.27
2023-04-30T02:52:09.081Z,76100.50
2023-04-30T02:54:36.200Z,76100.09
2023-04-30T02:57:04.371Z,76104.20
2023-04-30T02:59:31.322Z,76107.50
2023-04-30T03:01:58.514Z,76105.02
2023-04-30T03:04:25.874Z,76101.73
2023-04-30T03:06:53.050Z,76104.61
2023-04-30T03:09:20.874Z,76106.67
2023-04-30T03:11:48.217Z,76107.49
2023-04-30T03:14:16.364Z,76108.73
2023-04-30T03:16:43.564Z,76108.73
2023-04-30T03:19:12.323Z,76109.14
2023-04-30T03:21:40.774Z,76108.73
2023-04-30T03:24:07.837Z,76106.26
2023-04-30T03:26:35.861Z,76100.91
2023-04-30T03:29:03.108Z,76097.20
2023-04-30T03:31:33.660Z,76093.50
2023-04-30T03:34:01.347Z,76093.92
2023-04-30T03:36:28.630Z,76092.27
2023-04-30T03:38:56.481Z,76087.73
2023-04-30T03:41:24.280Z,76087.34
2023-04-30T03:43:52.058Z,76084.86
2023-04-30T03:46:19.256Z,76085.27
2023-04-30T03:48:46.484Z,76077.45
2023-04-30T03:51:14.144Z,76072.52
2023-04-30T03:53:41.147Z,76072.10
2023-04-30T03:56:08.853Z,76067.58
2023-04-30T03:58:37.113Z,76065.11
2023-04-30T04:01:07.286Z,76061.00
2023-04-30T04:03:37.314Z,76056.05
2023-04-30T04:06:04.873Z,76045.77
2023-04-30T04:08:32.319Z,76045.35
2023-04-30T04:11:03.324Z,76044.52
2023-04-30T04:13:36.430Z,76041.65
2023-04-30T04:16:15.969Z,76035.89
2023-04-30T04:18:49.902Z,76030.95
2023-04-30T04:21:24.487Z,76023.13
2023-04-30T04:23:51.814Z,76016.96
2023-04-30T04:26:21.072Z,76008.31
2023-04-30T04:28:49.685Z,75997.20
2023-04-30T04:31:18.486Z,75991.45
2023-04-30T04:33:48.471Z,75979.92
2023-04-30T04:36:17.709Z,75973.75
2023-04-30T04:38:45.238Z,75967.98
2023-04-30T04:41:13.745Z,75958.94
2023-04-30T04:43:40.803Z,75952.35
2023-04-30T04:46:11.670Z,75943.30
2023-04-30T04:48:40.163Z,75933.01
2023-04-30T04:51:08.962Z,75925.19
2023-04-30T04:53:36.268Z,75917.38
2023-04-30T04:56:03.373Z,75910.38
2023-04-30T04:58:31.027Z,75901.73
2023-04-30T05:01:04.559Z,75896.80
2023-04-30T05:03:36.660Z,75887.33
2023-04-30T05:06:04.490Z,75876.64
2023-04-30T05:08:31.662Z,75866.75
2023-04-30T05:10:59.678Z,75858.53
2023-04-30T05:13:26.824Z,75854.83
2023-04-30T05:15:55.012Z,75847.41
2023-04-30T05:18:22.054Z,75843.30
2023-04-30T05:20:50.013Z,75839.18
2023-04-30T05:23:20.141Z,75833.42
2023-04-30T05:25:53.951Z,75832.61
2023-04-30T05:28:21.140Z,75820.26
2023-04-30T05:30:49.247Z,75810.80
2023-04-30T05:33:16.311Z,75800.09
2023-04-30T05:35:43.389Z,75789.39
2023-04-30T05:38:11.487Z,75781.58
2023-04-30T05:40:38.424Z,75768.41
2023-04-30T05:43:06.211Z,75764.70
2023-04-30T05:45:33.719Z,75767.17
2023-04-30T05:48:03.158Z,75757.71
2023-04-30T05:50:32.411Z,75754.83
2023-04-30T05:53:04.027Z,75740.84
2023-04-30T05:55:35.956Z,75733.42
2023-04-30T05:58:04.401Z,75732.61
2023-04-30T06:00:31.668Z,75725.20
2023-04-30T06:02:59.530Z,75716.55
2023-04-30T06:05:26.993Z,75703.80
2023-04-30T06:07:54.107Z,75697.22
2023-04-30T06:10:21.723Z,75689.40
2023-04-30T06:12:48.709Z,75675.83
2023-04-30T06:15:15.970Z,75669.23
2023-04-30T06:17:43.150Z,75664.30
2023-04-30T06:20:10.632Z,75658.55
2023-04-30T06:22:48.093Z,75643.31
2023-04-30T06:25:16.670Z,75642.09
2023-04-30T06:27:43.681Z,75635.91
2023-04-30T06:30:11.285Z,75629.33
2023-04-30T06:32:40.915Z,75621.92
2023-04-30T06:35:09.498Z,75611.23
2023-04-30T06:37:42.648Z,75606.29
2023-04-30T06:40:11.746Z,75605.05
2023-04-30T06:42:40.769Z,75605.05
2023-04-30T06:45:10.924Z,75602.99
2023-04-30T06:47:38.218Z,75595.17
2023-04-30T06:50:06.685Z,75586.95
2023-04-30T06:52:35.262Z,75577.90
2023-04-30T06:55:06.057Z,75567.60
2023-04-30T06:57:37.379Z,75556.49
2023-04-30T07:00:09.416Z,75545.39
2023-04-30T07:02:37.028Z,75535.10
2023-04-30T07:05:04.478Z,75531.80
2023-04-30T07:07:32.000Z,75529.34
2023-04-30T07:10:01.716Z,75520.29
2023-04-30T07:12:36.419Z,75519.46
2023-04-30T07:15:04.383Z,75515.77
2023-04-30T07:17:31.866Z,75510.82
2023-04-30T07:20:01.617Z,75502.59
2023-04-30T07:22:30.160Z,75498.06
2023-04-30T07:24:57.387Z,75494.36
2023-04-30T07:27:24.760Z,75493.54
2023-04-30T07:29:52.903Z,75492.71
2023-04-30T07:32:26.731Z,75488.19
2023-04-30T07:34:54.602Z,75477.91
2023-04-30T07:37:28.078Z,75458.98
2023-04-30T07:39:56.585Z,75446.64
2023-04-30T07:42:25.918Z,75432.23
2023-04-30T07:44:52.865Z,75430.17
2023-04-30T07:47:19.871Z,75422.36
2023-04-30T07:49:47.756Z,75414.54
2023-04-30T07:52:17.149Z,75406.72
2023-04-30T07:54:45.245Z,75397.67
2023-04-30T07:57:12.559Z,75386.14
2023-04-30T07:59:39.873Z,75381.62
2023-04-30T08:02:08.475Z,75382.44
2023-04-30T08:04:36.563Z,75378.74
2023-04-30T08:07:04.158Z,75370.52
2023-04-30T08:09:31.731Z,75362.70
2023-04-30T08:12:01.582Z,75361.05
2023-04-30T08:14:28.881Z,75358.98
2023-04-30T08:16:56.471Z,75360.23
2023-04-30T08:19:23.510Z,75357.34
2023-04-30T08:21:52.723Z,75352.41
2023-04-30T08:24:21.554Z,75352.01
2023-04-30T08:26:53.478Z,75355.29
2023-04-30T08:29:21.892Z,75356.52
2023-04-30T08:31:57.199Z,75358.58
2023-04-30T08:34:25.975Z,75361.05
2023-04-30T08:36:53.826Z,75369.29
2023-04-30T08:39:21.432Z,75380.80
2023-04-30T08:41:58.443Z,75379.98
2023-04-30T08:44:27.004Z,75377.51
2023-04-30T08:46:55.534Z,75369.27
2023-04-30T08:49:25.425Z,75359.41
2023-04-30T08:51:55.829Z,75344.60
2023-04-30T08:54:25.733Z,75318.27
2023-04-30T08:56:55.378Z,75303.45
2023-04-30T08:59:22.301Z,75286.99
2023-04-30T09:01:52.064Z,75270.53
2023-04-30T09:04:24.764Z,75256.96
2023-04-30T09:06:59.130Z,75253.25
2023-04-30T09:09:30.901Z,75261.89
2023-04-30T09:12:19.359Z,75258.61
2023-04-30T09:15:07.241Z,75251.20
2023-04-30T09:17:37.700Z,75245.44
2023-04-30T09:20:11.886Z,75238.45
2023-04-30T09:22:41.012Z,75233.92
2023-04-30T09:25:08.824Z,75235.97
2023-04-30T09:27:36.440Z,75235.56
2023-04-30T09:30:04.195Z,75236.80
2023-04-30T09:32:37.161Z,75242.14
2023-04-30T09:35:04.904Z,75246.26
2023-04-30T09:37:41.658Z,75246.26
2023-04-30T09:40:11.966Z,75249.96
2023-04-30T09:42:41.789Z,75254.08
2023-04-30T09:45:11.561Z,75245.02
2023-04-30T09:47:40.099Z,75242.14
2023-04-30T09:50:08.613Z,75250.78
2023-04-30T09:52:39.282Z,75259.02
2023-04-30T09:55:07.161Z,75261.48
2023-04-30T09:57:36.309Z,75269.30
2023-04-30T10:00:09.900Z,75266.41
2023-04-30T10:02:37.645Z,75259.84
2023-04-30T10:05:08.623Z,75245.85
2023-04-30T10:07:40.333Z,75235.56
2023-04-30T10:10:09.368Z,75219.10
2023-04-30T10:12:50.918Z,75209.64
2023-04-30T10:15:25.364Z,75201.41
2023-04-30T10:18:04.708Z,75187.42
2023-04-30T10:20:34.655Z,75170.14
2023-04-30T10:23:02.294Z,75149.16
2023-04-30T10:25:29.613Z,75116.24
2023-04-30T10:27:58.920Z,75094.03
2023-04-30T10:30:25.894Z,75071.80
2023-04-30T10:33:05.389Z,75047.95
2023-04-30T10:35:49.472Z,75012.57
2023-04-30T10:38:24.535Z,74982.54
2023-04-30T10:40:57.629Z,74957.02
2023-04-30T10:43:26.078Z,74908.48
2023-04-30T10:45:53.383Z,74883.38
2023-04-30T10:48:26.784Z,74882.56
2023-04-30T10:51:00.212Z,74880.09
2023-04-30T10:53:33.490Z,74893.66
2023-04-30T10:56:08.403Z,74904.36
2023-04-30T10:58:37.256Z,74903.13
2023-04-30T11:01:10.381Z,74881.33
2023-04-30T11:04:07.839Z,74846.77
2023-04-30T11:06:49.462Z,74811.39
2023-04-30T11:09:16.892Z,74798.23
2023-04-30T11:11:44.922Z,74803.57
2023-04-30T11:14:28.978Z,74809.34
2023-04-30T11:16:55.898Z,74820.04
2023-04-30T11:19:24.580Z,74831.95
2023-04-30T11:22:24.357Z,74830.31
2023-04-30T11:25:09.609Z,74854.59
2023-04-30T11:27:38.460Z,74861.58
2023-04-30T11:30:18.966Z,74859.11
2023-04-30T11:32:49.375Z,74851.70
2023-04-30T11:35:19.464Z,74851.70
2023-04-30T11:37:46.739Z,74844.30
2023-04-30T11:40:14.388Z,74849.23
2023-04-30T11:42:46.702Z,74864.45
2023-04-30T11:45:21.832Z,74878.86
2023-04-30T11:47:50.291Z,74892.84
2023-04-30T11:50:27.167Z,74907.25
2023-04-30T11:52:58.256Z,74920.83
2023-04-30T11:55:25.955Z,74929.46
2023-04-30T11:57:55.766Z,74945.10
2023-04-30T12:00:27.661Z,74958.27
2023-04-30T12:02:55.342Z,74961.14
2023-04-30T12:05:27.367Z,74964.02
2023-04-30T12:07:59.420Z,74961.95
2023-04-30T12:10:27.073Z,74955.79
2023-04-30T12:12:56.735Z,74948.80
2023-04-30T12:15:28.462Z,74932.34
2023-04-30T12:17:56.664Z,74918.35
2023-04-30T12:20:25.779Z,74920.41
2023-04-30T12:22:53.196Z,74919.17
2023-04-30T12:25:22.098Z,74918.77
2023-04-30T12:27:51.538Z,74905.19
2023-04-30T12:30:23.321Z,74888.32
2023-04-30T12:32:51.597Z,74882.15
2023-04-30T12:35:23.114Z,74878.86
2023-04-30T12:37:54.671Z,74883.39
2023-04-30T12:40:27.657Z,74885.85
2023-04-30T12:43:02.321Z,74882.96
2023-04-30T12:45:50.961Z,74875.16
2023-04-30T12:48:25.002Z,74868.16
2023-04-30T12:51:15.532Z,74868.98
2023-04-30T12:53:46.555Z,74876.80
2023-04-30T12:56:16.773Z,74888.73
2023-04-30T12:58:47.572Z,74906.42
2023-04-30T13:01:23.389Z,74914.23
2023-04-30T13:03:52.328Z,74922.06
2023-04-30T13:06:21.972Z,74918.77
2023-04-30T13:08:58.300Z,74915.48
2023-04-30T13:11:27.178Z,74911.77
2023-04-30T13:13:57.540Z,74903.54
2023-04-30T13:16:25.444Z,74899.84
2023-04-30T13:18:53.246Z,74908.07
2023-04-30T13:21:20.736Z,74923.29
2023-04-30T13:23:52.698Z,74933.17
2023-04-30T13:26:25.954Z,74945.92
2023-04-30T13:28:53.154Z,74938.10
2023-04-30T13:31:26.016Z,74930.28
2023-04-30T13:33:57.938Z,74924.52
2023-04-30T13:36:25.116Z,74917.13
2023-04-30T13:38:52.656Z,74913.42
2023-04-30T13:41:22.078Z,74902.72
2023-04-30T13:43:49.204Z,74885.44
2023-04-30T13:46:16.745Z,74871.45
2023-04-30T13:48:48.588Z,74861.17
2023-04-30T13:51:18.062Z,74864.05
2023-04-30T13:53:46.629Z,74874.33
2023-04-30T13:56:15.035Z,74874.33
2023-04-30T13:58:47.185Z,74866.92
2023-04-30T14:01:15.824Z,74853.35
2023-04-30T14:03:44.009Z,74841.42
2023-04-30T14:06:11.317Z,74825.38
2023-04-30T14:08:38.342Z,74825.79
2023-04-30T14:11:06.218Z,74839.36
2023-04-30T14:13:33.705Z,74858.70
2023-04-30T14:16:01.724Z,74870.63
2023-04-30T14:18:31.368Z,74882.15
2023-04-30T14:20:59.400Z,74884.20
2023-04-30T14:23:28.699Z,74888.33
2023-04-30T14:25:58.059Z,74893.67
2023-04-30T14:28:25.694Z,74903.13
2023-04-30T14:30:52.726Z,74912.19
2023-04-30T14:33:20.248Z,74923.70
2023-04-30T14:35:47.968Z,74929.05
2023-04-30T14:38:16.386Z,74939.33
2023-04-30T14:40:46.842Z,74943.04
2023-04-30T14:43:13.895Z,74943.45
2023-04-30T14:45:41.068Z,74948.39
2023-04-30T14:48:13.289Z,74952.91
2023-04-30T14:50:46.608Z,74955.39
2023-04-30T14:53:13.839Z,74955.80
2023-04-30T14:55:41.975Z,74957.85
2023-04-30T14:58:10.005Z,74962.78
2023-04-30T15:00:38.186Z,74974.72
2023-04-30T15:03:07.792Z,74979.65
2023-04-30T15:05:35.948Z,74984.59
2023-04-30T15:08:03.926Z,74986.65
2023-04-30T15:10:31.430Z,74985.83
2023-04-30T15:12:59.311Z,74984.17
2023-04-30T15:15:30.445Z,74985.00
2023-04-30T15:18:05.591Z,74992.82
2023-04-30T15:20:33.200Z,74996.52
2023-04-30T15:23:00.342Z,74999.40
2023-04-30T15:25:29.920Z,75008.86
2023-04-30T15:28:00.248Z,75015.86
2023-04-30T15:30:28.420Z,75017.50
2023-04-30T15:32:56.507Z,75024.49
2023-04-30T15:35:27.655Z,75030.26
2023-04-30T15:37:55.935Z,75036.44
2023-04-30T15:40:25.893Z,75041.78
2023-04-30T15:42:55.786Z,75046.71
2023-04-30T15:45:24.968Z,75050.01
2023-04-30T15:47:54.404Z,75056.59
2023-04-30T15:50:27.860Z,75061.11
2023-04-30T15:52:58.009Z,75068.92
2023-04-30T15:55:27.250Z,75073.05
2023-04-30T15:57:55.484Z,75081.27
2023-04-30T16:00:26.713Z,75087.45
2023-04-30T16:02:57.612Z,75089.91
2023-04-30T16:05:26.444Z,75101.02
2023-04-30T16:07:55.052Z,75107.61
2023-04-30T16:10:23.945Z,75108.84
2023-04-30T16:12:54.129Z,75112.54
2023-04-30T16:15:23.774Z,75116.65
2023-04-30T16:17:52.366Z,75122.42
2023-04-30T16:20:20.990Z,75123.65
2023-04-30T16:22:50.729Z,75128.17
2023-04-30T16:25:24.820Z,75137.23
2023-04-30T16:27:58.395Z,75144.63
2023-04-30T16:30:26.338Z,75151.63
2023-04-30T16:32:57.853Z,75157.80
2023-04-30T16:35:26.217Z,75159.86
2023-04-30T16:37:56.363Z,75169.73
2023-04-30T16:40:28.271Z,75173.85
2023-04-30T16:42:59.657Z,75180.84
2023-04-30T16:45:29.692Z,75186.60
2023-04-30T16:47:58.469Z,75191.95
2023-04-30T16:50:26.852Z,75200.59
2023-04-30T16:52:56.385Z,75207.98
2023-04-30T16:55:24.313Z,75213.75
2023-04-30T16:57:54.466Z,75223.22
2023-04-30T17:00:22.173Z,75228.56
2023-04-30T17:02:49.652Z,75233.51
2023-04-30T17:05:18.318Z,75237.61
2023-04-30T17:07:45.550Z,75241.32
2023-04-30T17:10:19.067Z,75244.20
2023-04-30T17:12:49.207Z,75251.20
2023-04-30T17:15:20.073Z,75257.37
2023-04-30T17:17:47.596Z,75260.66
2023-04-30T17:20:17.009Z,75264.77
2023-04-30T17:22:44.304Z,75269.71
2023-04-30T17:25:11.352Z,75280.41
2023-04-30T17:27:39.134Z,75289.05
2023-04-30T17:30:10.068Z,75294.81
2023-04-30T17:32:37.596Z,75304.27
2023-04-30T17:35:07.111Z,75309.21
2023-04-30T17:37:37.996Z,75317.02
2023-04-30T17:40:07.297Z,75324.44
2023-04-30T17:42:38.634Z,75332.25
2023-04-30T17:45:11.345Z,75338.42
2023-04-30T17:47:40.601Z,75341.71
2023-04-30T17:50:08.824Z,75349.54
2023-04-30T17:52:38.501Z,75356.11
2023-04-30T17:55:07.608Z,75362.28
2023-04-30T17:57:36.111Z,75367.64
2023-04-30T18:00:06.661Z,75373.39
2023-04-30T18:02:46.897Z,75381.21
2023-04-30T18:05:22.658Z,75384.50
2023-04-30T18:07:52.462Z,75387.79
2023-04-30T18:10:19.528Z,75391.50
2023-04-30T18:12:49.805Z,75393.96
2023-04-30T18:15:21.298Z,75397.27
2023-04-30T18:17:49.423Z,75402.20
2023-04-30T18:20:18.580Z,75396.85
2023-04-30T18:22:53.105Z,75401.37
2023-04-30T18:25:23.218Z,75404.26
2023-04-30T18:27:51.892Z,75409.19
2023-04-30T18:30:19.724Z,75414.95
2023-04-30T18:32:49.455Z,75418.24
2023-04-30T18:35:17.681Z,75418.23
2023-04-30T18:37:46.405Z,75420.30
2023-04-30T18:40:17.370Z,75422.77
2023-04-30T18:42:44.403Z,75426.88
2023-04-30T18:45:11.765Z,75430.59
2023-04-30T18:47:41.680Z,75433.05
2023-04-30T18:50:15.439Z,75434.29
2023-04-30T18:52:43.943Z,75435.52
2023-04-30T18:55:14.524Z,75434.29
2023-04-30T18:57:44.209Z,75436.76
2023-04-30T19:00:14.347Z,75437.58
2023-04-30T19:02:43.895Z,75442.94
2023-04-30T19:05:12.120Z,75447.05
2023-04-30T19:07:49.300Z,75448.28
2023-04-30T19:10:21.777Z,75450.74
2023-04-30T19:12:48.967Z,75452.39
2023-04-30T19:15:17.364Z,75456.92
2023-04-30T19:17:44.851Z,75459.39
2023-04-30T19:20:13.317Z,75465.15
2023-04-30T19:22:44.816Z,75467.20
2023-04-30T19:25:13.305Z,75475.84
2023-04-30T19:27:42.673Z,75476.26
2023-04-30T19:30:14.374Z,75479.14
2023-04-30T19:32:43.542Z,75481.60
2023-04-30T19:35:11.282Z,75484.48
2023-04-30T19:37:43.554Z,75486.96
2023-04-30T19:40:11.649Z,75489.02
2023-04-30T19:42:39.500Z,75493.13
2023-04-30T19:45:10.719Z,75494.36
2023-04-30T19:47:41.444Z,75495.60
2023-04-30T19:50:09.128Z,75498.06
2023-04-30T19:52:37.196Z,75499.70
2023-04-30T19:55:07.068Z,75500.12
2023-04-30T19:57:36.078Z,75501.77
2023-04-30T20:00:06.658Z,75505.06
2023-04-30T20:02:37.921Z,75509.17
2023-04-30T20:05:07.227Z,75510.82
2023-04-30T20:07:35.291Z,75515.35
2023-04-30T20:10:05.362Z,75519.45
2023-04-30T20:12:32.829Z,75521.93
2023-04-30T20:15:00.828Z,75524.80
2023-04-30T20:17:28.268Z,75526.05
2023-04-30T20:19:56.298Z,75528.92
2023-04-30T20:22:24.680Z,75531.80
2023-04-30T20:24:52.141Z,75532.63
2023-04-30T20:27:24.661Z,75536.75
2023-04-30T20:29:54.104Z,75539.21
2023-04-30T20:32:25.101Z,75541.69
2023-04-30T20:34:54.215Z,75544.15
2023-04-30T20:37:35.987Z,75548.27
2023-04-30T20:40:03.472Z,75556.09
2023-04-30T20:42:31.800Z,75558.14
2023-04-30T20:44:59.254Z,75565.14
2023-04-30T20:47:27.643Z,75565.55
2023-04-30T20:49:57.732Z,75569.25
2023-04-30T20:52:25.556Z,75573.37
2023-04-30T20:54:52.671Z,75578.30
2023-04-30T20:57:21.348Z,75582.83
2023-04-30T20:59:48.397Z,75590.65
2023-04-30T21:02:16.134Z,75596.41
2023-04-30T21:04:43.210Z,75605.46
2023-04-30T21:07:11.221Z,75611.64
2023-04-30T21:09:39.323Z,75621.92
2023-04-30T21:12:06.363Z,75628.92
2023-04-30T21:14:33.826Z,75635.91
2023-04-30T21:17:04.843Z,75641.67
2023-04-30T21:19:33.098Z,75651.13
2023-04-30T21:22:00.218Z,75659.36
2023-04-30T21:24:31.224Z,75667.60
2023-04-30T21:26:59.903Z,75671.30
2023-04-30T21:29:26.883Z,75677.48
2023-04-30T21:31:55.547Z,75684.88
2023-04-30T21:34:22.814Z,75691.88
2023-04-30T21:36:51.397Z,75699.69
2023-04-30T21:39:18.366Z,75707.09
2023-04-30T21:41:47.154Z,75711.21
2023-04-30T21:44:15.127Z,75717.80
2023-04-30T21:46:42.253Z,75716.56
2023-04-30T21:49:09.418Z,75721.91
2023-04-30T21:51:38.209Z,75725.61
2023-04-30T21:54:07.192Z,75728.91
2023-04-30T21:56:34.348Z,75729.73
2023-04-30T21:59:02.012Z,75730.96
2023-04-30T22:01:30.274Z,75738.37
2023-04-30T22:03:57.661Z,75745.37
2023-04-30T22:06:24.918Z,75749.48
2023-04-30T22:08:52.133Z,75752.36
2023-04-30T22:11:20.671Z,75758.52
2023-04-30T22:13:50.059Z,75763.05
2023-04-30T22:16:18.965Z,75764.70
2023-04-30T22:18:46.876Z,75767.59
2023-04-30T22:21:13.921Z,75770.47
2023-04-30T22:23:41.391Z,75770.05
2023-04-30T22:26:10.802Z,75772.11
2023-04-30T22:28:39.457Z,75776.64
2023-04-30T22:31:08.054Z,75781.16
2023-04-30T22:33:36.118Z,75789.40
2023-04-30T22:36:05.654Z,75792.69
2023-04-30T22:38:32.940Z,75793.52
2023-04-30T22:41:00.363Z,75794.75
2023-04-30T22:43:29.633Z,75797.63
2023-04-30T22:45:59.532Z,75797.21
2023-04-30T22:48:27.625Z,75796.80
2023-04-30T22:50:54.948Z,75798.45
2023-04-30T22:53:24.588Z,75801.33
2023-04-30T22:55:53.588Z,75805.45
2023-04-30T22:58:22.264Z,75809.15
2023-04-30T23:00:50.016Z,75816.14
2023-04-30T23:03:17.484Z,75822.31
2023-04-30T23:05:44.507Z,75827.66
2023-04-30T23:08:12.102Z,75837.95
2023-04-30T23:10:39.065Z,75845.77
2023-04-30T23:13:06.057Z,75848.23
2023-04-30T23:15:34.457Z,75846.18
2023-04-30T23:18:01.531Z,75845.77
2023-04-30T23:20:28.634Z,75847.42
2023-04-30T23:22:56.626Z,75844.13
2023-04-30T23:25:23.526Z,75846.18
2023-04-30T23:27:50.765Z,75848.23
2023-04-30T23:30:17.777Z,75847.42
2023-04-30T23:32:46.320Z,75849.06
2023-04-30T23:35:13.395Z,75850.30
2023-04-30T23:37:40.457Z,75849.89
2023-04-30T23:40:09.142Z,75853.59
2023-04-30T23:42:36.355Z,75859.35
2023-04-30T23:45:06.729Z,75867.98
2023-04-30T23:47:37.978Z,75870.46
2023-04-30T23:50:05.520Z,75874.58
2023-04-30T23:52:34.815Z,75879.52
2023-04-30T23:55:02.450Z,75878.27
2023-04-30T23:57:29.689Z,75881.57
2023-04-30T23:59:57.482Z,75884.86
